Arabia, OH

7:09 AM EST on February 01, 2015 (GMT -0500)
RAWS DEAN OH US | Change Station
CLOSE
Current Station
Personal Weather Station
Location: Arabia, OH
Elevation: 993 ft
Nearby Weather Stations
Active Advisory: Special Statement

Elev 993 ft 38.69 °N, 82.64 °W | Updated 57 minutes ago

Ice Pellets
Ice Pellets
33 °F
Feels Like 33 °F
N
3
Wind Variable Wind from SSE
Gusts 5.0 mph

Today
High -- | Low -- °F
--% Chance of Precip.
Yesterday
High -- | Low -- °F
Precip. -- in
7:36 AM 5:52 PM
Waxing Gibbous, 94% visible
Pressure 30.19 in
Visibility 10.0 miles
Clouds Overcast 9000 ft
Windchill 33 °F
Dew Point 19 °F
Humidity 55%
Rainfall 0.01 in
Snow Depth Not available.
UV 0 out of 12
Pollen .10 out of 12
Air Quality Not available.
Flu Activity Not available.
METAR KHTS 011151Z 10004KT 10SM OVC090 M01/M05 A3017 RMK AO2 SLP221 60000 70001 T10061050 10000 21011 58004 $

More Conditions Fewer Conditions

Pressure 30.19 in
Visibility 10.0 miles
Clouds Overcast 9000 ft
Windchill 33 °F
Dew Point 19 °F
Humidity 55%
Rainfall 0.01 in
Snow Depth Not available.
UV 0 out of 12
Pollen .10 out of 12
Air Quality Not available.
Flu Activity Not available.
METAR KHTS 011151Z 10004KT 10SM OVC090 M01/M05 A3017 RMK AO2 SLP221 60000 70001 T10061050 10000 21011 58004 $

More Conditions Fewer Conditions

10-Day Weather Forecast

Almanac

Astronomy

Feb. 01, 2015 Rise Set
Actual Time
Civil Twilight
Nautical Twilight
Astronomical Twilight
Moon
Length of Visible Light
Length of Day
Tomorrow will be .
, % of the Moon is Illuminated

Today's Extremes

State Highs State Lows

Community

WunderPhotos

Upload Photos

1,792,348 photos uploaded!

WunderBlogs® & News

Nearby

Air Quality

  Air Quality AQ Index Pollutant
Not available.

Snow Depth

Station Depth Elevation

Earthquake Activity

City Distance Mag. Time & Date
Minimum magnitude displayed is 2.5.

Coastal Water Temperatures

Place Temperature

Nearby Weather Stations